createdAt,value
2023-02-23T00:01:29.435Z,76.02
2023-02-23T00:03:58.628Z,75.92
2023-02-23T00:08:57.626Z,75.86
2023-02-23T00:13:52.052Z,75.88
2023-02-23T00:18:56.446Z,75.83
2023-02-23T00:21:29.482Z,75.95
2023-02-23T00:24:07.577Z,76.01
2023-02-23T00:26:38.501Z,76.08
2023-02-23T00:29:15.575Z,76.12
2023-02-23T00:34:12.043Z,76.49
2023-02-23T00:39:24.320Z,76.57
2023-02-23T00:41:53.347Z,76.68
2023-02-23T00:44:23.564Z,76.86
2023-02-23T00:46:52.524Z,77.16
2023-02-23T00:49:22.971Z,77.06
2023-02-23T00:51:51.682Z,77.11
2023-02-23T00:54:20.974Z,77.21
2023-02-23T00:56:49.627Z,77.22
2023-02-23T00:59:18.285Z,77.20
2023-02-23T01:01:46.328Z,77.11
2023-02-23T01:04:14.339Z,77.11
2023-02-23T01:06:42.813Z,77.11
2023-02-23T01:09:16.367Z,77.00
2023-02-23T01:11:45.975Z,77.04
2023-02-23T01:14:12.717Z,77.17
2023-02-23T01:16:41.713Z,77.13
2023-02-23T01:19:10.827Z,77.11
2023-02-23T01:24:08.751Z,77.24
2023-02-23T01:26:40.620Z,77.17
2023-02-23T01:29:12.367Z,77.35
2023-02-23T01:31:43.873Z,77.56
2023-02-23T01:34:14.071Z,77.67
2023-02-23T01:36:43.884Z,77.64
2023-02-23T01:39:16.704Z,77.71
2023-02-23T01:41:45.242Z,77.76
2023-02-23T01:46:43.238Z,77.73
2023-02-23T01:54:21.479Z,77.84
2023-02-23T01:59:18.127Z,77.79
2023-02-23T02:04:16.088Z,77.77
2023-02-23T02:06:47.115Z,77.86
2023-02-23T02:09:17.317Z,77.85
2023-02-23T02:11:46.096Z,77.90
2023-02-23T02:14:27.178Z,77.84
2023-02-23T02:17:10.277Z,78.10
2023-02-23T02:20:32.705Z,78.00
2023-02-23T02:23:43.733Z,78.13
2023-02-23T02:26:29.084Z,78.07
2023-02-23T02:29:34.155Z,78.11
2023-02-23T02:32:22.220Z,78.11
2023-02-23T02:35:10.150Z,78.16
2023-02-23T02:38:07.290Z,78.10
2023-02-23T02:40:55.356Z,78.02
2023-02-23T02:43:46.541Z,78.05
2023-02-23T02:46:24.897Z,78.02
2023-02-23T02:49:21.023Z,78.00
2023-02-23T02:51:57.015Z,78.00
2023-02-23T02:54:33.536Z,77.93
2023-02-23T02:57:04.591Z,77.88
2023-02-23T03:00:04.212Z,77.92
2023-02-23T03:02:54.957Z,77.92
2023-02-23T03:11:31.042Z,77.87
2023-02-23T03:14:53.632Z,77.92
2023-02-23T03:18:03.219Z,77.87
2023-02-23T03:20:57.667Z,77.76
2023-02-23T03:24:06.749Z,77.79
2023-02-23T03:27:11.464Z,77.80
2023-02-23T03:32:33.495Z,77.74
2023-02-23T03:35:27.827Z,77.65
2023-02-23T03:38:22.805Z,77.61
2023-02-23T03:41:11.901Z,77.59
2023-02-23T03:43:59.514Z,77.58
2023-02-23T03:46:48.871Z,77.58
2023-02-23T03:49:38.757Z,77.48
2023-02-23T03:52:33.374Z,77.47
2023-02-23T03:55:25.047Z,77.51
2023-02-23T03:58:14.871Z,77.56
2023-02-23T04:03:35.716Z,77.50
2023-02-23T04:06:26.353Z,77.54
2023-02-23T04:11:46.678Z,77.53
2023-02-23T04:14:34.850Z,77.54
2023-02-23T04:17:04.763Z,77.56
2023-02-23T04:19:32.700Z,77.47
2023-02-23T04:24:26.439Z,77.42
2023-02-23T04:26:54.297Z,77.23
2023-02-23T04:29:21.964Z,77.22
2023-02-23T04:31:49.873Z,77.16
2023-02-23T04:34:17.791Z,77.09
2023-02-23T04:36:45.470Z,77.00
2023-02-23T04:39:13.041Z,76.82
2023-02-23T04:41:40.953Z,76.77
2023-02-23T04:44:08.404Z,76.79
2023-02-23T04:46:36.088Z,76.88
2023-02-23T04:49:03.788Z,76.92
2023-02-23T04:51:33.263Z,76.95
2023-02-23T04:54:01.897Z,76.96
2023-02-23T04:56:29.895Z,77.03
2023-02-23T04:58:58.156Z,77.04
2023-02-23T05:01:26.740Z,77.10
2023-02-23T05:03:55.271Z,77.10
2023-02-23T05:06:22.948Z,77.14
2023-02-23T05:08:50.591Z,77.14
2023-02-23T05:11:19.932Z,77.17
2023-02-23T05:13:47.513Z,77.21
2023-02-23T05:16:15.313Z,77.27
2023-02-23T05:21:11.110Z,77.34
2023-02-23T05:26:08.951Z,77.42
2023-02-23T05:31:03.992Z,77.52
2023-02-23T05:36:02.422Z,77.79
2023-02-23T05:40:55.987Z,77.82
2023-02-23T05:43:23.993Z,77.86
2023-02-23T05:45:51.852Z,77.87
2023-02-23T05:48:19.899Z,77.80
2023-02-23T05:50:47.506Z,77.82
2023-02-23T05:53:15.669Z,77.91
2023-02-23T05:55:43.642Z,77.91
2023-02-23T05:58:17.177Z,77.83
2023-02-23T06:00:46.697Z,77.82
2023-02-23T06:03:15.528Z,77.78
2023-02-23T06:05:43.247Z,77.80
2023-02-23T06:08:11.002Z,77.73
2023-02-23T06:13:04.673Z,77.42
2023-02-23T06:17:58.841Z,77.27
2023-02-23T06:20:26.758Z,76.53
2023-02-23T06:22:54.468Z,76.77
2023-02-23T06:25:22.251Z,76.76
2023-02-23T06:27:50.159Z,76.62
2023-02-23T06:30:19.395Z,76.37
2023-02-23T06:32:47.876Z,75.82
2023-02-23T06:35:18.335Z,75.63
2023-02-23T06:37:46.061Z,75.51
2023-02-23T06:40:13.878Z,75.60
2023-02-23T06:42:41.670Z,75.39
2023-02-23T06:45:10.628Z,75.05
2023-02-23T06:47:38.798Z,74.73
2023-02-23T06:50:09.061Z,74.73
2023-02-23T06:52:37.034Z,74.58
2023-02-23T06:55:06.987Z,74.63
2023-02-23T06:57:34.678Z,74.71
2023-02-23T07:00:05.127Z,74.60
2023-02-23T07:02:32.060Z,74.56
2023-02-23T07:04:59.800Z,74.31
2023-02-23T07:07:28.139Z,73.86
2023-02-23T07:09:55.888Z,73.94
2023-02-23T07:12:23.494Z,74.50
2023-02-23T07:14:51.251Z,74.08
2023-02-23T07:19:47.092Z,73.48
2023-02-23T07:24:41.221Z,72.52
2023-02-23T07:27:09.154Z,71.82
2023-02-23T07:29:37.095Z,71.32
2023-02-23T07:32:05.486Z,71.48
2023-02-23T07:34:33.036Z,71.05
2023-02-23T07:37:00.749Z,70.17
2023-02-23T07:39:28.528Z,70.07
2023-02-23T07:41:56.062Z,70.43
2023-02-23T07:46:52.232Z,70.06
2023-02-23T07:51:46.447Z,67.70
2023-02-23T07:54:15.156Z,67.99
2023-02-23T07:56:42.284Z,66.49
2023-02-23T07:59:10.046Z,66.37
2023-02-23T08:01:38.300Z,66.51
2023-02-23T08:04:06.422Z,66.72
2023-02-23T08:06:33.960Z,66.41
2023-02-23T08:09:04.165Z,64.57
2023-02-23T08:11:32.923Z,64.03
2023-02-23T08:14:00.506Z,64.44
2023-02-23T08:16:29.819Z,63.59
2023-02-23T08:18:59.140Z,64.39
2023-02-23T08:21:28.889Z,62.83
2023-02-23T08:23:59.628Z,61.23
2023-02-23T08:26:27.377Z,62.07
2023-02-23T08:28:55.489Z,62.10
2023-02-23T08:31:24.698Z,61.39
2023-02-23T08:33:53.369Z,60.40
2023-02-23T08:36:21.132Z,59.36
2023-02-23T08:38:49.178Z,60.19
2023-02-23T08:41:17.713Z,58.70
2023-02-23T08:43:46.113Z,58.66
2023-02-23T08:46:13.982Z,56.88
2023-02-23T08:48:41.483Z,57.71
2023-02-23T08:51:09.353Z,57.14
2023-02-23T08:53:37.297Z,56.62
2023-02-23T08:56:07.551Z,56.20
2023-02-23T08:58:36.489Z,55.47
2023-02-23T09:01:05.855Z,56.01
2023-02-23T09:03:38.234Z,55.38
2023-02-23T09:06:12.557Z,55.01
2023-02-23T09:08:40.378Z,54.96
2023-02-23T09:11:08.099Z,52.69
2023-02-23T09:13:35.666Z,52.69
2023-02-23T09:16:03.883Z,51.37
2023-02-23T09:18:32.192Z,51.94
2023-02-23T09:21:07.959Z,51.09
2023-02-23T09:23:35.894Z,51.87
2023-02-23T09:28:37.633Z,50.30
2023-02-23T09:33:34.004Z,49.55
2023-02-23T09:36:08.714Z,49.63
2023-02-23T09:38:37.437Z,49.67
2023-02-23T09:41:13.187Z,48.49
2023-02-23T09:44:14.603Z,47.01
2023-02-23T09:47:07.088Z,47.34
2023-02-23T09:49:39.062Z,48.24
2023-02-23T09:54:42.833Z,44.11
2023-02-23T09:57:19.062Z,46.09
2023-02-23T09:59:48.038Z,44.52
2023-02-23T10:02:38.706Z,46.21
2023-02-23T10:09:26.828Z,45.21
2023-02-23T10:12:05.643Z,45.21
2023-02-23T10:15:03.541Z,46.51
2023-02-23T10:17:40.049Z,45.07
2023-02-23T10:20:52.879Z,43.94
2023-02-23T10:23:35.837Z,42.97
2023-02-23T10:26:06.939Z,42.95
2023-02-23T10:31:32.398Z,44.58
2023-02-23T10:34:06.607Z,44.35
2023-02-23T10:36:45.827Z,43.94
2023-02-23T10:39:14.087Z,44.24
2023-02-23T10:41:43.131Z,43.73
2023-02-23T10:44:19.114Z,43.57
2023-02-23T10:49:35.335Z,43.57
2023-02-23T10:52:04.135Z,42.72
2023-02-23T10:54:47.821Z,42.47
2023-02-23T10:57:31.967Z,42.93
2023-02-23T11:00:19.902Z,42.28
2023-02-23T11:05:37.055Z,42.09
2023-02-23T11:08:25.088Z,42.12
2023-02-23T11:11:28.709Z,42.44
2023-02-23T11:13:57.453Z,40.20
2023-02-23T11:16:29.990Z,41.56
2023-02-23T11:19:03.225Z,42.13
2023-02-23T11:21:38.169Z,42.29
2023-02-23T11:24:19.630Z,41.68
2023-02-23T11:26:51.427Z,42.05
2023-02-23T11:29:38.843Z,41.93
2023-02-23T11:32:23.106Z,41.22
2023-02-23T11:37:22.827Z,42.13
2023-02-23T11:40:04.972Z,42.36
2023-02-23T11:42:33.520Z,42.16
2023-02-23T11:45:21.140Z,42.29
2023-02-23T11:50:32.132Z,42.32
2023-02-23T11:53:31.016Z,42.67
2023-02-23T11:58:46.790Z,40.68
2023-02-23T12:01:18.260Z,39.43
2023-02-23T12:06:41.080Z,38.97
2023-02-23T12:09:29.322Z,38.43
2023-02-23T12:12:08.328Z,39.57
2023-02-23T12:15:02.208Z,39.59
2023-02-23T12:17:35.488Z,40.09
2023-02-23T12:23:05.972Z,40.15
2023-02-23T12:26:00.418Z,40.43
2023-02-23T12:31:10.431Z,39.85
2023-02-23T12:33:45.967Z,39.61
2023-02-23T12:36:25.950Z,39.83
2023-02-23T12:39:04.830Z,39.66
2023-02-23T12:41:37.354Z,39.29
2023-02-23T12:46:52.495Z,38.43
2023-02-23T12:52:05.749Z,38.41
2023-02-23T12:54:34.396Z,39.51
2023-02-23T12:59:57.719Z,39.46
2023-02-23T13:02:24.630Z,40.22
2023-02-23T13:05:14.793Z,40.78
2023-02-23T13:08:13.233Z,40.90
2023-02-23T13:10:48.291Z,41.12
2023-02-23T13:13:27.468Z,41.50
2023-02-23T13:16:18.885Z,41.08
2023-02-23T13:19:25.086Z,40.91
2023-02-23T13:22:13.726Z,40.79
2023-02-23T13:24:46.096Z,40.09
2023-02-23T13:27:27.492Z,40.19
2023-02-23T13:29:58.594Z,40.75
2023-02-23T13:32:33.811Z,41.26
2023-02-23T13:37:41.347Z,41.11
2023-02-23T13:40:49.284Z,40.88
2023-02-23T13:43:45.235Z,41.25
2023-02-23T13:46:25.157Z,40.95
2023-02-23T13:49:24.486Z,40.92
2023-02-23T13:51:59.416Z,41.20
2023-02-23T13:56:59.291Z,40.98
2023-02-23T13:59:45.054Z,41.32
2023-02-23T14:02:23.521Z,41.31
2023-02-23T14:04:51.793Z,41.44
2023-02-23T14:07:31.721Z,41.11
2023-02-23T14:10:18.069Z,41.30
2023-02-23T14:15:52.302Z,41.40
2023-02-23T14:18:25.585Z,41.53
2023-02-23T14:21:13.564Z,41.83
2023-02-23T14:26:36.356Z,41.63
2023-02-23T14:31:31.693Z,41.99
2023-02-23T14:36:32.823Z,41.33
2023-02-23T14:39:05.937Z,41.95
2023-02-23T14:41:42.302Z,42.20
2023-02-23T14:46:59.626Z,42.61
2023-02-23T14:49:48.845Z,42.74
2023-02-23T14:52:30.957Z,42.97
2023-02-23T14:55:23.075Z,42.98
2023-02-23T14:57:55.746Z,42.90
2023-02-23T15:00:32.518Z,43.05
2023-02-23T15:03:11.800Z,43.24
2023-02-23T15:05:56.285Z,43.40
2023-02-23T15:08:28.866Z,43.50
2023-02-23T15:11:13.032Z,43.74
2023-02-23T15:13:46.065Z,43.88
2023-02-23T15:18:52.868Z,44.16
2023-02-23T15:23:54.728Z,44.63
2023-02-23T15:26:36.333Z,44.92
2023-02-23T15:29:17.364Z,45.13
2023-02-23T15:34:13.522Z,45.59
2023-02-23T15:39:12.216Z,46.06
2023-02-23T15:41:42.575Z,46.32
2023-02-23T15:44:21.755Z,46.62
2023-02-23T15:46:59.704Z,46.91
2023-02-23T15:49:33.957Z,47.17
2023-02-23T15:54:39.169Z,47.81
2023-02-23T15:57:18.451Z,48.08
2023-02-23T15:59:48.339Z,48.41
2023-02-23T16:02:19.464Z,48.66
2023-02-23T16:07:21.780Z,49.32
2023-02-23T16:10:06.231Z,49.65
2023-02-23T16:12:39.494Z,49.98
2023-02-23T16:17:47.396Z,50.86
2023-02-23T16:20:28.659Z,51.21
2023-02-23T16:22:57.595Z,51.64
2023-02-23T16:28:07.669Z,52.36
2023-02-23T16:33:28.602Z,52.73
2023-02-23T16:41:31.067Z,53.22
2023-02-23T16:44:01.846Z,53.54
2023-02-23T16:47:07.622Z,53.67
2023-02-23T16:49:35.381Z,53.75
2023-02-23T16:54:29.878Z,54.11
2023-02-23T16:57:00.640Z,54.37
2023-02-23T16:59:30.362Z,54.47
2023-02-23T17:04:24.241Z,55.07
2023-02-23T17:09:21.093Z,55.47
2023-02-23T17:11:48.707Z,55.58
2023-02-23T17:14:27.387Z,55.81
2023-02-23T17:16:55.088Z,56.02
2023-02-23T17:19:24.684Z,56.27
2023-02-23T17:21:57.730Z,56.40
2023-02-23T17:24:26.003Z,56.51
2023-02-23T17:26:55.101Z,56.93
2023-02-23T17:31:51.793Z,57.43
2023-02-23T17:34:19.753Z,57.77
2023-02-23T17:36:47.590Z,57.88
2023-02-23T17:39:16.269Z,58.13
2023-02-23T17:41:43.985Z,58.32
2023-02-23T17:44:15.031Z,58.67
2023-02-23T17:46:45.901Z,58.60
2023-02-23T17:49:16.516Z,58.65
2023-02-23T17:51:44.234Z,58.81
2023-02-23T17:54:13.841Z,58.88
2023-02-23T17:56:43.046Z,58.95
2023-02-23T17:59:10.663Z,59.45
2023-02-23T18:01:40.145Z,59.23
2023-02-23T18:04:11.758Z,59.18
2023-02-23T18:06:39.643Z,59.01
2023-02-23T18:09:07.990Z,59.01
2023-02-23T18:14:15.885Z,59.03
2023-02-23T18:16:43.873Z,59.03
2023-02-23T18:19:32.319Z,59.03
2023-02-23T18:22:51.798Z,59.04
2023-02-23T18:25:26.384Z,59.30
2023-02-23T18:27:55.411Z,59.41
2023-02-23T18:30:24.776Z,59.52
2023-02-23T18:35:19.008Z,59.98
2023-02-23T18:37:46.670Z,60.04
2023-02-23T18:40:15.038Z,60.23
2023-02-23T18:42:42.875Z,60.40
2023-02-23T18:45:12.315Z,60.60
2023-02-23T18:47:42.480Z,60.85
2023-02-23T18:50:12.282Z,60.96
2023-02-23T18:55:08.456Z,61.37
2023-02-23T18:57:36.552Z,61.58
2023-02-23T19:00:08.390Z,61.73
2023-02-23T19:05:03.985Z,61.82
2023-02-23T19:10:02.440Z,62.22
2023-02-23T19:12:31.274Z,62.63
2023-02-23T19:14:59.026Z,62.84
2023-02-23T19:20:00.251Z,62.63
2023-02-23T19:24:55.309Z,62.56
2023-02-23T19:29:53.143Z,62.63
2023-02-23T19:32:21.366Z,62.69
2023-02-23T19:34:49.265Z,62.68
2023-02-23T19:37:17.431Z,62.71
2023-02-23T19:39:45.861Z,62.76
2023-02-23T19:44:44.702Z,62.83
2023-02-23T19:47:12.763Z,62.82
2023-02-23T19:49:42.612Z,62.85
2023-02-23T19:52:10.818Z,62.90
2023-02-23T19:54:38.957Z,62.95
2023-02-23T19:57:09.055Z,62.99
2023-02-23T19:59:37.638Z,63.03
2023-02-23T20:02:06.223Z,63.15
2023-02-23T20:04:37.204Z,63.13
2023-02-23T20:07:05.129Z,63.17
2023-02-23T20:09:32.970Z,63.26
2023-02-23T20:12:01.176Z,63.35
2023-02-23T20:14:28.932Z,63.67
2023-02-23T20:16:57.390Z,63.76
2023-02-23T20:19:28.655Z,63.57
2023-02-23T20:21:56.859Z,63.65
2023-02-23T20:24:24.716Z,63.63
2023-02-23T20:26:54.727Z,63.79
2023-02-23T20:29:23.037Z,63.84
2023-02-23T20:31:51.642Z,63.99
2023-02-23T20:34:25.006Z,64.11
2023-02-23T20:39:19.364Z,64.15
2023-02-23T20:41:49.383Z,64.42
2023-02-23T20:44:16.488Z,64.55
2023-02-23T20:46:44.703Z,64.68
2023-02-23T20:49:13.315Z,64.79
2023-02-23T20:54:11.359Z,64.97
2023-02-23T20:59:11.409Z,65.41
2023-02-23T21:04:05.630Z,65.57
2023-02-23T21:06:34.358Z,65.57
2023-02-23T21:09:04.290Z,65.65
2023-02-23T21:14:00.226Z,65.65
2023-02-23T21:18:58.217Z,65.65
2023-02-23T21:23:53.028Z,65.78
2023-02-23T21:26:21.793Z,65.94
2023-02-23T21:28:49.832Z,65.98
2023-02-23T21:31:17.810Z,66.03
2023-02-23T21:33:45.587Z,66.24
2023-02-23T21:36:13.536Z,66.25
2023-02-23T21:38:44.174Z,66.24
2023-02-23T21:41:13.919Z,66.32
2023-02-23T21:43:44.205Z,66.42
2023-02-23T21:48:43.513Z,66.56
2023-02-23T21:53:41.846Z,66.56
2023-02-23T21:56:22.491Z,66.66
2023-02-23T22:01:25.082Z,66.87
2023-02-23T22:06:28.500Z,66.92
2023-02-23T22:08:57.119Z,66.94
2023-02-23T22:11:27.273Z,67.01
2023-02-23T22:13:58.590Z,66.96
2023-02-23T22:19:00.520Z,67.11
2023-02-23T22:23:54.533Z,67.23
2023-02-23T22:26:22.462Z,67.20
2023-02-23T22:28:50.700Z,67.29
2023-02-23T22:31:18.818Z,67.31
2023-02-23T22:33:46.979Z,67.32
2023-02-23T22:36:16.762Z,67.29
2023-02-23T22:38:46.083Z,67.34
2023-02-23T22:41:16.191Z,67.33
2023-02-23T22:43:49.997Z,67.32
2023-02-23T22:46:17.963Z,67.36
2023-02-23T22:48:46.481Z,67.36
2023-02-23T22:53:40.298Z,67.39
2023-02-23T22:58:36.393Z,67.38
2023-02-23T23:03:36.299Z,67.32
2023-02-23T23:08:35.263Z,67.40
2023-02-23T23:11:10.672Z,67.34
2023-02-23T23:16:11.326Z,67.71
2023-02-23T23:21:13.924Z,68.11
2023-02-23T23:26:13.070Z,68.44
2023-02-23T23:28:46.987Z,68.40
2023-02-23T23:33:48.407Z,68.79
2023-02-23T23:38:42.905Z,69.13
2023-02-23T23:43:41.410Z,69.40
2023-02-23T23:48:36.211Z,69.52
2023-02-23T23:53:34.073Z,69.74
2023-02-23T23:56:10.403Z,69.83
2023-02-23T23:58:38.262Z,69.97
